Baltimore, Maryland
Traffic Map
Current Weather Conditions
Baltimore, Maryland
Overcast Drizzle
Overcast
67°
Feels Like: 67°
Wind Chill: 67° Ceiling: 400
Heat Index: 67° Visibility: 1.5mi
Dew Point: 67° Wind: 9mph
Humidity: 100% Direction: 50° (NE)
Pressure: 29.82in Gusts: 0mph
Raw Report DataKBWI 230954Z 05008KT 1 1/2SM -DZ BR OVC004 19/19 A2982 RMK AO2 SLP096 P0000 T01940194
Traffic Incident Summary
Active as of:
Severity:
Category:
InformationThere was an issue retrieving the traffic information for this location. Please try a different location or try again shortly.
Advertisements